Nearby METAR Reports

 

SAAR - Rosario Aero, Santa Fe, Argentina
Distance from station: NE 100km
Actualización: 26/04/2018 08:00
Despejado
Despejado
 Viento del NNE
Viento: NNE 22 km/h
Temperatura: 22°C
Rocío: 20°C
Humedad: 88%
Barómetro: 1014 hPa
Resumen: Despejado
Visibility: greater than 10 km
2018/04/26 11:00 SAAR 261100Z 02012KT CAVOK 22/20 Q1014
SAEZ - Ezeiza Aero, BsAs, Argentina
Distance from station: SE 280km
Actualización: 26/04/2018 08:00
Parcialmente nuboso
Parcialmente nuboso
 Viento del NE
Viento: NE 7 km/h
Temperatura: 21°C
Rocío: 20°C
Humedad: 94%
Barómetro: 1016 hPa
Clouds: Parcialmente nuboso
Visibility: 7 km
2018/04/26 11:00 SAEZ 261100Z 04004KT 7000 NSC 21/20 Q1016 NOSIG
 
SAOC - Rio Cuarto Aero, Cordoba, Argentina
Distance from station: O 240km
Actualización: 26/04/2018 08:00
Niebla, Cubierto
Niebla, Cubierto
 Viento del N
Viento: N 30 km/h
Temperatura: 21°C
Rocío: 20°C
Humedad: 94%
Barómetro: 1011 hPa
Resumen: Niebla
Clouds: Cubierto
Visibility: 5 km
Cloud details: Parcialmente nuboso 244 m
Cubierto 305 m
2018/04/26 11:00 SAOC 261100Z 36016KT 5000 BR SCT008 OVC010 21/20 Q1011
SABE - Aeroparque Aero, Bs As, Argentina
Distance from station: NE 270km
Actualización: 26/04/2018 08:00
Despejado
Despejado
 Viento del NNE
Viento: NNE 13 km/h
Temperatura: 23°C
Rocío: 20°C
Humedad: 83%
Barómetro: 1016 hPa
Resumen: Despejado
Visibility: greater than 10 km
2018/04/26 11:00 SABE 261100Z 03007KT CAVOK 23/20 Q1016 NOSIG